Nearby METAR Reports

 

KORH - Worcester, Massachusetts, USA
Distance from station: NW 4mi, 7km
Updated: Sun, 09-Aug-2020 9:54pm EDT
Clear
Clear
 Wind from SW
Wind: SW 9 mph , 15 km/h
Temperature: 75°F , 24°C
Dew Point: 66°F , 19°C
Humidity: 74%
Barometer: 30.07 inHg , 1018.3 hPa
Clouds: Clear
Visibility: 10 miles , 16 km
2020/08/10 01:54 KORH 100154Z AUTO 22008KT 10SM CLR 24/19 A3007 RMK AO2 SLP177 T02390194
KBOS - Boston, Massachusetts, USA
Distance from station: ENE 42mi, 68km
Updated: Sun, 09-Aug-2020 9:54pm EDT
Partly cloudy
Partly cloudy
 Wind from SSW
Wind: SSW 12 mph , 19 km/h
Temperature: 75°F , 24°C
Dew Point: 68°F , 20°C
Humidity: 78%
Barometer: 30.03 inHg , 1016.9 hPa
Clouds: Partly cloudy
Visibility: 10 miles , 16 km
Cloud details: Few Clouds 15000 ft
Partly cloudy 25000 ft
2020/08/10 01:54 KBOS 100154Z 20010KT 10SM FEW150 SCT250 24/20 A3003 RMK AO2 SLP167 T02390200
 
KCQX - Chatham, Massachusetts, USA
Distance from station: SE 102mi, 164km
Updated: Sun, 09-Aug-2020 9:52pm EDT
Clear
Clear
 Wind from varies
Wind: varies 6 mph , 9 km/h
Temperature: 73°F , 23°C
Dew Point: 70°F , 21°C
Humidity: 89%
Barometer: 30.08 inHg , 1018.6 hPa
Clouds: Clear
Visibility: 10 miles , 16 km
2020/08/10 01:52 KCQX 100152Z AUTO VRB05KT 10SM CLR 23/21 A3008 RMK AO2 SLP188 T02330211 PWINO
KMVY - Marthas Vineyard, Massachusetts, USA
Distance from station: SE 84mi, 135km
Updated: Sun, 09-Aug-2020 9:53pm EDT
Clear
Clear
 Wind from SSW
Wind: SSW 7 mph , 11 km/h
Temperature: 72°F , 22°C
Dew Point: 70°F , 21°C
Humidity: 94%
Barometer: 30.08 inHg , 1018.6 hPa
Clouds: Clear
Visibility: 10 miles , 16 km
2020/08/10 01:53 KMVY 100153Z 21006KT 10SM CLR 22/21 A3008 RMK AO2 SLP184 T02220211 $
 
KPVC - Provincetown, Massachusetts, USA
Distance from station: NNW 85mi, 136km
Updated: Sun, 09-Aug-2020 9:56pm EDT
Clear
Clear
 Wind from SSW
Wind: SSW 12 mph , 19 km/h
Temperature: 72°F , 22°C
Dew Point: 68°F , 20°C
Humidity: 88%
Barometer: 30.06 inHg , 1017.9 hPa
Clouds: Clear
Visibility: 10 miles , 16 km
2020/08/10 01:56 KPVC 100156Z AUTO 20010KT 10SM CLR 22/20 A3006 RMK AO2 SLP178 T02170200
KAQW - Savoy, Massachusetts, USA
Distance from station: NNW 66mi, 106km
Updated: Sun, 09-Aug-2020 9:52pm EDT
Partly cloudy
Partly cloudy
 Wind from calm
Wind: Calm
Temperature: 72°F , 22°C
Dew Point: 66°F , 19°C
Humidity: 83%
Barometer: 30.05 inHg , 1017.6 hPa
Clouds: Partly cloudy
Visibility: 10 miles , 16 km
Cloud details: Partly cloudy 7000 ft
2020/08/10 01:52 KAQW 100152Z AUTO 00000KT 10SM SCT070 22/19 A3005 RMK AO2 SLP173 T02170194
 
KIZG - Fryeburg, Maine, USA
Distance from station: NNE 133mi, 214km
Updated: Sun, 09-Aug-2020 9:54pm EDT
Partly cloudy
Partly cloudy
 Wind from calm
Wind: Calm
Temperature: 72°F , 22°C
Dew Point: 64°F , 18°C
Humidity: 78%
Barometer: 30.01 inHg , 1016.3 hPa
Clouds: Partly cloudy
Visibility: 10 miles , 16 km
Cloud details: Partly cloudy 10000 ft
2020/08/10 01:54 KIZG 100154Z AUTO 00000KT 10SM SCT100 22/18 A3001 RMK AO2 SLP161 T02220183
KMWN - Mt Washington, New Hampshire, USA
Distance from station: NNE 146mi, 234km
Updated: Sun, 09-Aug-2020 9:53pm EDT
Fog, Overcast
Fog, Overcast
 Wind from W
Wind: W 23 mph , 37 km/h
Temperature: 52°F , 11°C
Dew Point: 52°F , 11°C
Humidity: 100%
Summary: Fog
Clouds: Overcast
Visibility: 1/8 mile , 0.2 km
Cloud details: Overcast 100 ft
2020/08/10 01:53 KMWN 100153Z 27020KT 1/8SM FG VV001 11/11 RMK
 
KBML - Berlin, New Hampshire, USA
Distance from station: NNE 160mi, 257km
Updated: Sun, 09-Aug-2020 9:52pm EDT
Few Clouds
Few Clouds
 Wind from calm
Wind: Calm
Temperature: 68°F , 20°C
Dew Point: 63°F , 17°C
Humidity: 83%
Barometer: 30.05 inHg , 1017.6 hPa
Clouds: Few Clouds
Visibility: 10 miles , 16 km
Cloud details: Few Clouds 6000 ft
2020/08/10 01:52 KBML 100152Z AUTO 00000KT 10SM FEW060 20/17 A3005 RMK AO2 SLP171 T02000172